Time;durP1;ratioP1;P1;durP2;ratioP2;P2;SDS_P1;SDS_P2;PMS_P1;PMS_P2;Temp;Humidity;BMP_temperature;BMP_pressure;BME280_temperature;BME280_humidity;BME280_pressure;Samples;Min_cycle;Max_cycle;Signal;HPM_P1;HPM_P2
2023/10/23 00:01:43;;;;;;;1.60;0.97;;;;;;;-143.84;55.68;45024.31;5090214;28;20875;-57
2023/10/23 00:04:10;;;;;;;1.83;1.30;;;;;;;-143.84;55.54;45037.66;5090154;28;20459;-57
2023/10/23 00:06:37;;;;;;;1.20;1.03;;;;;;;-143.84;56.68;45014.78;5089922;28;20489;-57
2023/10/23 00:09:06;;;;;;;2.67;1.60;;;;;;;-143.84;57.25;45024.31;5089949;28;20436;-57
2023/10/23 00:11:33;;;;;;;2.73;1.63;;;;;;;-143.84;56.79;45012.88;5090240;28;20432;-57
2023/10/23 00:14:01;;;;;;;2.57;1.23;;;;;;;-143.84;57.10;45020.50;5090009;28;20451;-57
2023/10/23 00:16:29;;;;;;;3.13;1.93;;;;;;;-143.84;57.25;45012.88;5090138;28;20808;-57
2023/10/23 00:18:56;;;;;;;2.10;1.80;;;;;;;-143.84;57.06;45030.03;5089877;28;20509;-57
2023/10/23 00:21:23;;;;;;;4.03;2.37;;;;;;;-143.84;57.40;45030.03;5089179;28;20494;-57
2023/10/23 00:23:50;;;;;;;1.63;1.10;;;;;;;-143.84;57.11;45033.84;5089572;28;20440;-57
2023/10/23 00:26:19;;;;;;;1.07;0.97;;;;;;;-143.84;56.88;45007.19;5089373;28;20589;-57
2023/10/23 00:28:46;;;;;;;5.60;2.00;;;;;;;-143.84;56.30;45049.06;5089769;28;20512;-57
2023/10/23 00:31:13;;;;;;;1.83;1.40;;;;;;;-143.84;55.86;45035.75;5089257;28;20824;-57
2023/10/23 00:33:40;;;;;;;1.10;1.00;;;;;;;-143.84;55.94;45018.59;5088944;28;20899;-57
2023/10/23 00:36:07;;;;;;;1.77;1.03;;;;;;;-143.84;55.16;45016.69;5088941;28;20497;-57
2023/10/23 00:38:35;;;;;;;1.97;1.50;;;;;;;-143.84;54.69;45030.03;5089412;28;20435;-57
2023/10/23 00:41:02;;;;;;;1.90;1.70;;;;;;;-143.84;54.02;45045.25;5089052;28;20802;-57
2023/10/23 00:43:30;;;;;;;1.10;0.77;;;;;;;-143.84;53.95;45010.97;5089289;28;20813;-57
2023/10/23 00:45:59;;;;;;;1.37;1.00;;;;;;;-143.84;53.22;45030.03;5089077;28;20511;-57
2023/10/23 00:48:27;;;;;;;1.93;1.20;;;;;;;-143.84;52.90;45031.94;5089182;28;20824;-57
2023/10/23 00:50:58;;;;;;;2.00;1.07;;;;;;;-143.84;52.27;45014.78;5089661;28;20883;-57
2023/10/23 00:53:28;;;;;;;2.20;1.80;;;;;;;-143.84;51.91;45020.50;5089246;28;20489;-57
2023/10/23 00:55:58;;;;;;;1.10;1.00;;;;;;;-143.84;51.83;45022.41;5089379;28;20516;-57
2023/10/23 00:58:26;;;;;;;2.40;1.60;;;;;;;-143.84;51.24;45010.97;5089314;28;20498;-57
2023/10/23 01:00:56;;;;;;;1.43;1.27;;;;;;;-143.84;51.57;45039.53;5089132;28;20448;-57
2023/10/23 01:03:23;;;;;;;2.00;1.47;;;;;;;-143.84;51.27;45014.78;5089234;28;20551;-57
2023/10/23 01:05:50;;;;;;;1.20;1.10;;;;;;;-143.84;51.07;45018.59;5088776;28;20486;-57
2023/10/23 01:08:18;;;;;;;2.63;2.43;;;;;;;-143.84;51.14;45022.41;5089102;28;20427;-57
2023/10/23 01:10:45;;;;;;;0.90;0.70;;;;;;;-143.84;51.25;45028.13;5088230;28;20440;-57
2023/10/23 01:13:13;;;;;;;2.50;1.10;;;;;;;-143.84;51.29;45033.84;5088488;28;20436;-57
2023/10/23 01:15:40;;;;;;;1.43;1.33;;;;;;;-143.84;50.94;45022.41;5088639;28;20451;-57
2023/10/23 01:18:09;;;;;;;2.10;1.33;;;;;;;-143.84;50.27;45030.03;5088413;28;21122;-57
2023/10/23 01:20:36;;;;;;;2.07;1.87;;;;;;;-143.84;50.15;45016.69;5088205;28;20462;-57
2023/10/23 01:23:04;;;;;;;1.00;0.73;;;;;;;-143.84;49.37;45049.06;5088807;28;20444;-57
2023/10/23 01:25:32;;;;;;;2.60;1.63;;;;;;;-143.84;48.99;45031.94;5088192;28;20483;-57
2023/10/23 01:28:00;;;;;;;1.10;0.90;;;;;;;-143.84;48.71;45024.31;5088346;28;20496;-57
2023/10/23 01:30:28;;;;;;;0.80;0.50;;;;;;;-143.84;48.21;45022.41;5088544;28;20447;-57
2023/10/23 01:32:55;;;;;;;1.30;1.20;;;;;;;-143.84;47.69;45018.59;5088432;28;21018;-57
2023/10/23 01:35:22;;;;;;;1.10;0.63;;;;;;;-143.84;47.18;45020.50;5092336;28;20435;-57
2023/10/23 01:37:49;;;;;;;2.90;1.10;;;;;;;-143.84;46.92;45016.69;5091907;28;20497;-57
2023/10/23 01:40:16;;;;;;;2.00;1.20;;;;;;;-143.84;46.69;45037.66;5091247;28;20435;-57
2023/10/23 01:42:46;;;;;;;1.60;1.50;;;;;;;-143.84;46.51;45024.31;5092061;28;20557;-57
2023/10/23 01:45:13;;;;;;;3.40;1.10;;;;;;;-143.84;46.24;45010.97;5091173;28;20494;-57
2023/10/23 01:47:41;;;;;;;3.77;1.80;;;;;;;-143.84;45.47;45007.19;5090858;28;20481;-57
2023/10/23 01:50:08;;;;;;;1.17;1.00;;;;;;;-143.84;45.53;45012.88;5091706;28;20751;-57
2023/10/23 01:52:36;;;;;;;3.37;1.07;;;;;;;-143.84;45.28;45012.88;5092594;28;21047;-57
2023/10/23 01:55:03;;;;;;;1.43;1.23;;;;;;;-143.84;44.93;45016.69;5091960;28;20431;-57
2023/10/23 01:57:30;;;;;;;1.40;1.07;;;;;;;-143.84;44.47;45005.28;5092209;28;20440;-57
2023/10/23 02:00:04;;;;;;;1.20;0.73;;;;;;;-143.84;44.09;45018.59;5091990;28;20495;-57
2023/10/23 02:02:31;;;;;;;0.90;0.60;;;;;;;-143.84;44.13;45030.03;5092329;28;20451;-57
2023/10/23 02:04:58;;;;;;;1.37;1.03;;;;;;;-143.84;44.38;45018.59;5092213;28;20644;-57
2023/10/23 02:07:26;;;;;;;0.90;0.60;;;;;;;-143.84;44.60;45018.59;5092365;28;20442;-57
2023/10/23 02:09:54;;;;;;;0.90;0.67;;;;;;;-143.84;44.61;45022.41;5091934;28;20454;-57
2023/10/23 02:12:21;;;;;;;1.43;1.27;;;;;;;-143.84;44.35;45043.34;5092131;28;20428;-57
2023/10/23 02:14:50;;;;;;;0.90;0.60;;;;;;;-143.84;44.03;45016.69;5092233;28;20732;-57
2023/10/23 02:17:19;;;;;;;1.20;0.90;;;;;;;-143.84;43.81;45022.41;5091635;28;20443;-57
2023/10/23 02:19:45;;;;;;;1.20;0.83;;;;;;;-143.84;43.70;45014.78;5091809;28;20560;-57
2023/10/23 02:22:13;;;;;;;1.10;1.00;;;;;;;-143.84;43.29;45020.50;5091366;28;20451;-57
2023/10/23 02:24:40;;;;;;;1.30;0.93;;;;;;;-143.84;43.23;45022.41;5091939;28;20431;-57
2023/10/23 02:27:07;;;;;;;1.20;0.93;;;;;;;-143.84;43.30;44990.03;5091650;28;20475;-57
2023/10/23 02:29:34;;;;;;;2.00;0.77;;;;;;;-143.84;43.08;45016.69;5092050;28;20436;-57
2023/10/23 02:32:01;;;;;;;1.00;0.77;;;;;;;-143.84;42.93;45014.78;5091900;28;21166;-57
2023/10/23 02:34:29;;;;;;;1.20;0.60;;;;;;;-143.84;42.57;44986.22;5091518;28;20487;-57
2023/10/23 02:36:56;;;;;;;1.00;0.63;;;;;;;-143.84;42.47;45007.19;5091736;28;20452;-57
2023/10/23 02:39:24;;;;;;;1.20;0.80;;;;;;;-143.84;42.63;44991.94;5091707;28;20440;-57
2023/10/23 02:41:51;;;;;;;1.30;0.90;;;;;;;-143.84;41.82;45012.88;5091389;28;20446;-57
2023/10/23 02:44:18;;;;;;;1.30;0.90;;;;;;;-143.84;41.96;45009.09;5090716;28;20455;-57
2023/10/23 02:46:45;;;;;;;1.10;0.80;;;;;;;-143.84;41.56;45035.75;5091343;28;20537;-57
2023/10/23 02:49:12;;;;;;;1.20;0.87;;;;;;;-143.84;41.57;45035.75;5091318;28;20489;-57
2023/10/23 02:51:41;;;;;;;1.83;0.83;;;;;;;-143.84;41.20;45012.88;5091090;28;20440;-57
2023/10/23 02:54:08;;;;;;;1.53;1.43;;;;;;;-143.84;41.24;45018.59;5091033;28;20452;-57
2023/10/23 02:56:36;;;;;;;1.40;1.00;;;;;;;-143.84;41.40;45018.59;5091125;28;20516;-57
2023/10/23 02:59:03;;;;;;;1.10;1.00;;;;;;;-143.84;41.30;45001.47;5090949;28;21198;-57
2023/10/23 03:01:31;;;;;;;1.47;0.93;;;;;;;-143.84;41.18;45022.41;5090723;28;20588;-57
2023/10/23 03:03:58;;;;;;;1.00;0.70;;;;;;;-143.84;41.08;45012.88;5090868;28;20937;-57
2023/10/23 03:06:25;;;;;;;1.00;0.70;;;;;;;-143.84;41.36;45010.97;5090568;28;20483;-57
2023/10/23 03:08:54;;;;;;;1.13;0.60;;;;;;;-143.84;41.34;45010.97;5090892;28;20443;-57
2023/10/23 03:11:21;;;;;;;1.00;0.80;;;;;;;-143.84;40.97;45016.69;5091114;28;20967;-57
2023/10/23 03:13:48;;;;;;;1.00;0.90;;;;;;;-143.84;41.02;45005.28;5090140;28;20455;-57
2023/10/23 03:16:15;;;;;;;9.20;1.03;;;;;;;-143.84;41.03;45045.25;5090623;28;20444;-57
2023/10/23 03:18:42;;;;;;;1.63;0.73;;;;;;;-143.84;41.12;44984.31;5090464;28;20442;-57
2023/10/23 03:21:09;;;;;;;1.10;1.00;;;;;;;-143.84;41.02;45007.19;5085693;28;20453;-57
2023/10/23 03:23:36;;;;;;;1.50;1.00;;;;;;;-143.84;41.13;45020.50;5070153;28;21000;-57
2023/10/23 03:26:05;;;;;;;1.40;0.77;;;;;;;-143.84;40.63;45028.13;5070123;28;20476;-57
2023/10/23 03:28:32;;;;;;;0.80;0.50;;;;;;;-143.84;40.85;45014.78;5069907;28;20494;-57
2023/10/23 03:31:03;;;;;;;2.57;1.23;;;;;;;-143.84;40.65;45012.88;5069820;28;20772;-57
2023/10/23 03:33:30;;;;;;;1.20;0.87;;;;;;;-143.84;40.88;45016.69;5086686;28;20949;-57
2023/10/23 03:35:57;;;;;;;1.03;0.80;;;;;;;-143.84;40.82;45022.41;5089774;28;20446;-57
2023/10/23 03:38:24;;;;;;;0.90;0.50;;;;;;;-143.84;40.68;45018.59;5089609;28;20516;-57
2023/10/23 03:40:56;;;;;;;0.90;0.60;;;;;;;-143.84;40.60;45001.47;5089600;28;20473;-57
2023/10/23 03:43:25;;;;;;;0.80;0.50;;;;;;;-143.84;40.50;45005.28;5089712;28;20444;-57
2023/10/23 03:45:52;;;;;;;2.07;1.13;;;;;;;-143.84;40.47;45037.66;5089772;28;20472;-57
2023/10/23 03:48:19;;;;;;;1.20;1.10;;;;;;;-143.84;40.77;44990.03;5089759;28;20456;-57
2023/10/23 03:50:46;;;;;;;6.83;1.30;;;;;;;-143.84;40.74;45005.28;5089362;28;20509;-57
2023/10/23 03:53:13;;;;;;;0.90;0.60;;;;;;;-143.84;40.57;45018.59;5090054;28;20428;-57
2023/10/23 03:55:41;;;;;;;1.10;0.80;;;;;;;-143.84;40.14;45003.38;5100167;28;20451;-57
2023/10/23 03:58:08;;;;;;;1.60;1.50;;;;;;;-143.84;40.54;45001.47;5110094;28;20483;-57
2023/10/23 04:00:36;;;;;;;2.90;1.30;;;;;;;-143.84;40.07;44993.84;5106924;28;20451;-57
2023/10/23 04:03:04;;;;;;;0.90;0.60;;;;;;;-143.84;40.40;45026.22;5089524;28;20452;-57
2023/10/23 04:05:31;;;;;;;1.57;0.90;;;;;;;-143.84;40.28;45024.31;5089200;28;20549;-57
2023/10/23 04:07:59;;;;;;;0.90;0.57;;;;;;;-143.84;40.34;45030.03;5089212;28;20442;-57
2023/10/23 04:10:26;;;;;;;1.50;1.17;;;;;;;-143.84;39.92;45014.78;5089218;28;20528;-57
2023/10/23 04:12:53;;;;;;;1.13;0.70;;;;;;;-143.84;40.04;45020.50;5089424;28;20440;-57
2023/10/23 04:15:20;;;;;;;1.00;0.50;;;;;;;-143.84;40.15;45033.84;5089123;28;20444;-57
2023/10/23 04:17:49;;;;;;;1.33;0.97;;;;;;;-143.84;40.02;44990.03;5089241;28;20440;-57
2023/10/23 04:20:16;;;;;;;1.10;0.77;;;;;;;-143.84;40.29;45016.69;5089261;28;20502;-57
2023/10/23 04:22:43;;;;;;;1.13;1.03;;;;;;;-143.84;40.11;45003.38;5089200;28;20489;-57
2023/10/23 04:25:11;;;;;;;0.90;0.50;;;;;;;-143.84;40.20;45014.78;5089152;28;20432;-57
2023/10/23 04:27:38;;;;;;;0.90;0.67;;;;;;;-143.84;40.37;45010.97;5089315;28;20615;-57
2023/10/23 04:30:07;;;;;;;0.90;0.70;;;;;;;-143.84;40.38;44997.66;5088980;28;20501;-57
2023/10/23 04:32:34;;;;;;;0.97;0.70;;;;;;;-143.84;39.92;45018.59;5088867;28;20508;-57
2023/10/23 04:35:02;;;;;;;1.43;1.33;;;;;;;-143.84;40.31;45003.38;5088805;28;20488;-57
2023/10/23 04:37:29;;;;;;;0.90;0.60;;;;;;;-143.84;40.26;45014.78;5089093;28;21301;-57
2023/10/23 04:39:56;;;;;;;0.90;0.70;;;;;;;-143.84;40.33;45018.59;5089117;28;20443;-57
2023/10/23 04:42:24;;;;;;;5.63;0.97;;;;;;;-143.84;40.23;44982.41;5088830;28;20436;-57
2023/10/23 04:44:51;;;;;;;1.00;0.70;;;;;;;-143.84;40.37;44993.84;5089081;28;20436;-57
2023/10/23 04:47:18;;;;;;;1.00;0.70;;;;;;;-143.84;40.49;45014.78;5088498;28;20476;-57
2023/10/23 04:49:47;;;;;;;1.57;0.90;;;;;;;-143.84;40.43;45020.50;5088861;28;20547;-57
2023/10/23 04:52:16;;;;;;;0.90;0.63;;;;;;;-143.84;40.59;45045.25;5088724;28;20450;-57
2023/10/23 04:54:43;;;;;;;1.30;0.70;;;;;;;-143.84;40.38;45009.09;5088821;28;20526;-57
2023/10/23 04:57:10;;;;;;;1.37;0.47;;;;;;;-143.84;40.14;44995.75;5088670;28;20796;-57
2023/10/23 04:59:38;;;;;;;1.10;0.50;;;;;;;-143.84;40.49;45028.13;5088757;28;20504;-57
2023/10/23 05:02:05;;;;;;;1.50;0.57;;;;;;;-143.84;40.33;45012.88;5088410;28;20443;-57
2023/10/23 05:04:32;;;;;;;1.03;0.80;;;;;;;-143.84;40.23;45024.31;5088595;28;20867;-57
2023/10/23 05:06:59;;;;;;;0.80;0.40;;;;;;;-143.84;40.23;44990.03;5089071;28;20487;-57
2023/10/23 05:09:28;;;;;;;1.00;0.70;;;;;;;-143.84;40.03;45012.88;5092798;28;21137;-57
2023/10/23 05:11:55;;;;;;;2.50;0.97;;;;;;;-143.84;40.36;44986.22;5092601;28;20444;-57
2023/10/23 05:14:22;;;;;;;0.90;0.60;;;;;;;-143.84;40.57;45030.03;5092743;28;20448;-57
2023/10/23 05:16:49;;;;;;;1.00;0.80;;;;;;;-143.84;40.55;45018.59;5092776;28;20436;-57
2023/10/23 05:19:16;;;;;;;1.60;0.80;;;;;;;-143.84;40.49;44984.31;5092463;28;20465;-57
2023/10/23 05:21:43;;;;;;;0.97;0.87;;;;;;;-143.84;40.24;45003.38;5092270;28;20489;-57
2023/10/23 05:24:10;;;;;;;1.30;0.60;;;;;;;-143.84;40.17;45018.59;5092309;28;20853;-57
2023/10/23 05:26:39;;;;;;;0.90;0.70;;;;;;;-143.84;40.09;45014.78;5091923;28;21071;-57
2023/10/23 05:29:06;;;;;;;0.90;0.53;;;;;;;-143.84;39.93;45014.78;5091899;28;20997;-57
2023/10/23 05:31:33;;;;;;;0.90;0.77;;;;;;;-143.84;40.00;45007.19;5092093;28;20446;-57
2023/10/23 05:34:00;;;;;;;1.57;0.60;;;;;;;-143.84;39.92;45022.41;5092424;28;20997;-57
2023/10/23 05:36:28;;;;;;;2.27;1.07;;;;;;;-143.84;39.79;45014.78;5092279;28;20440;-57
2023/10/23 05:38:55;;;;;;;0.90;0.60;;;;;;;-143.84;39.75;44999.56;5092488;28;20440;-57
2023/10/23 05:41:22;;;;;;;1.00;0.70;;;;;;;-143.84;39.59;44990.03;5092279;28;20443;-57
2023/10/23 05:43:51;;;;;;;1.20;1.10;;;;;;;-143.84;39.86;44997.66;5092530;28;20447;-57
2023/10/23 05:46:20;;;;;;;1.10;0.60;;;;;;;-143.84;39.22;44988.13;5092123;28;20565;-57
2023/10/23 05:48:48;;;;;;;1.50;0.73;;;;;;;-143.84;39.52;44991.94;5092267;28;20439;-57
2023/10/23 05:51:15;;;;;;;1.00;0.50;;;;;;;-143.84;39.00;45003.38;5091945;28;20784;-57
2023/10/23 05:53:42;;;;;;;1.30;0.73;;;;;;;-143.84;39.05;45014.78;5091883;28;20497;-57
2023/10/23 05:56:10;;;;;;;1.00;0.60;;;;;;;-143.84;38.85;44999.56;5091501;28;20448;-57
2023/10/23 05:58:37;;;;;;;0.90;0.60;;;;;;;-143.84;38.92;45020.50;5091853;28;20847;-57
2023/10/23 06:01:09;;;;;;;0.90;0.50;;;;;;;-143.84;38.44;44984.31;5090994;28;20516;-57
2023/10/23 06:03:37;;;;;;;0.87;0.47;;;;;;;-143.84;38.33;44993.84;5090764;28;20463;-57
2023/10/23 06:06:04;;;;;;;0.80;0.40;;;;;;;-143.84;37.90;44984.31;5091658;28;20431;-57
2023/10/23 06:08:31;;;;;;;0.90;0.60;;;;;;;-143.84;37.55;44995.75;5091424;28;20530;-57
2023/10/23 06:10:59;;;;;;;1.10;0.70;;;;;;;-143.84;37.35;44963.38;5090393;28;20443;-57
2023/10/23 06:13:26;;;;;;;1.03;0.80;;;;;;;-143.84;37.25;44972.91;5091128;28;20440;-59
2023/10/23 06:15:53;;;;;;;0.93;0.63;;;;;;;-143.84;36.79;44969.09;5090207;28;20436;-59
2023/10/23 06:18:22;;;;;;;0.90;0.70;;;;;;;-143.84;36.55;44940.53;5090574;28;20956;-59
2023/10/23 06:20:57;;;;;;;1.10;0.87;;;;;;;-143.84;36.48;44972.91;5091045;28;20443;-59
2023/10/23 06:23:25;;;;;;;1.10;0.67;;;;;;;-143.84;36.19;44948.16;5091110;28;20508;-59
2023/10/23 06:25:55;;;;;;;1.43;0.70;;;;;;;-143.84;36.01;44984.31;5091282;28;20497;-59
2023/10/23 06:28:22;;;;;;;2.20;0.93;;;;;;;-143.84;36.02;44950.06;5090836;28;20483;-59
2023/10/23 06:30:49;;;;;;;1.00;0.90;;;;;;;-143.84;35.82;44969.09;5090924;28;20505;-59
2023/10/23 06:33:17;;;;;;;1.10;0.50;;;;;;;-143.84;35.56;44988.13;5090543;28;20487;-59
2023/10/23 06:35:45;;;;;;;1.00;0.63;;;;;;;-143.84;35.66;44961.47;5090737;28;20451;-59
2023/10/23 06:38:12;;;;;;;1.30;0.80;;;;;;;-143.84;35.82;44965.28;5090903;28;20452;-59
2023/10/23 06:40:39;;;;;;;0.80;0.50;;;;;;;-143.84;35.83;44965.28;5090866;28;20440;-59
2023/10/23 06:43:06;;;;;;;1.10;0.77;;;;;;;-143.84;35.72;44953.88;5090826;28;20436;-59
2023/10/23 06:45:37;;;;;;;1.10;0.80;;;;;;;-143.84;35.94;44940.53;5090594;28;20489;-59
2023/10/23 06:48:04;;;;;;;1.23;1.00;;;;;;;-143.84;35.88;44938.63;5090650;28;20536;-59
2023/10/23 06:50:32;;;;;;;1.80;0.80;;;;;;;-143.84;35.77;44944.34;5090627;28;20439;-59
2023/10/23 06:53:00;;;;;;;1.20;0.83;;;;;;;-143.84;35.76;44957.66;5090578;28;20448;-59
2023/10/23 06:55:27;;;;;;;1.43;1.23;;;;;;;-143.84;35.45;44938.63;5090696;28;20451;-59
2023/10/23 06:57:55;;;;;;;1.00;0.80;;;;;;;-143.84;35.65;44951.97;5090408;28;20509;-59
2023/10/23 07:00:22;;;;;;;1.20;0.67;;;;;;;-143.84;35.69;44946.25;5090378;28;20483;-59
2023/10/23 07:02:49;;;;;;;0.80;0.40;;;;;;;-143.84;35.58;44934.81;5090162;28;20497;-59
2023/10/23 07:05:16;;;;;;;0.90;0.50;;;;;;;-143.84;35.48;44972.91;5090626;28;21020;-59
2023/10/23 07:07:44;;;;;;;0.80;0.40;;;;;;;-143.84;35.46;44946.25;5090493;28;20510;-59
2023/10/23 07:10:12;;;;;;;1.87;0.90;;;;;;;-143.84;35.19;44934.81;5090618;28;20547;-59
2023/10/23 07:12:40;;;;;;;1.30;1.07;;;;;;;-143.84;35.68;44953.88;5090068;28;20481;-59
2023/10/23 07:15:08;;;;;;;0.90;0.50;;;;;;;-143.84;35.49;44940.53;5090612;28;20785;-59
2023/10/23 07:17:35;;;;;;;1.03;0.87;;;;;;;-143.84;35.32;44965.28;5090216;28;20432;-59
2023/10/23 07:20:06;;;;;;;0.80;0.40;;;;;;;-143.84;34.95;44942.44;5090210;28;20440;-59
2023/10/23 07:22:33;;;;;;;0.80;0.40;;;;;;;-143.84;35.15;44942.44;5090156;28;20836;-59
2023/10/23 07:25:01;;;;;;;1.97;0.80;;;;;;;-143.84;35.23;44940.53;5089960;28;20945;-59
2023/10/23 07:27:29;;;;;;;5.70;0.80;;;;;;;-143.84;35.19;44950.06;5089723;28;20488;-60
2023/10/23 07:29:56;;;;;;;1.07;0.93;;;;;;;-143.84;34.15;44925.31;5089908;28;20493;-59
2023/10/23 07:32:24;;;;;;;3.23;0.97;;;;;;;-143.84;34.85;44936.72;5089859;28;20489;-59
2023/10/23 07:34:51;;;;;;;1.17;0.60;;;;;;;-143.84;33.51;44915.78;5089567;28;20614;-59
2023/10/23 07:37:19;;;;;;;1.00;0.77;;;;;;;-143.84;33.42;44904.34;5089641;28;20444;-59
2023/10/23 07:39:47;;;;;;;1.00;0.70;;;;;;;-143.84;33.83;44931.00;5089014;28;20450;-59
2023/10/23 07:42:15;;;;;;;0.90;0.50;;;;;;;-143.84;33.85;44919.59;5089095;28;20443;-59
2023/10/23 07:44:44;;;;;;;1.20;0.73;;;;;;;-143.84;33.40;44889.13;5089034;28;20527;-59
2023/10/23 07:47:11;;;;;;;6.43;2.50;;;;;;;-143.84;34.91;44887.22;5089391;28;20517;-59
2023/10/23 07:49:38;;;;;;;1.50;1.40;;;;;;;-143.84;33.66;44873.88;5089872;28;20497;-59
2023/10/23 07:52:06;;;;;;;1.77;1.57;;;;;;;-143.84;34.37;44913.88;5089436;28;20497;-59
2023/10/23 07:54:33;;;;;;;1.10;0.60;;;;;;;-143.84;32.32;44879.59;5089566;28;20436;-59
2023/10/23 07:57:00;;;;;;;1.00;0.67;;;;;;;-143.84;32.46;44908.16;5089358;28;20448;-59
2023/10/23 07:59:27;;;;;;;0.97;0.80;;;;;;;-143.84;32.57;44864.38;5089470;28;20506;-59
2023/10/23 08:01:56;;;;;;;1.00;0.80;;;;;;;-143.84;33.06;44854.84;5089347;28;20440;-59
2023/10/23 08:04:23;;;;;;;1.00;0.60;;;;;;;-143.84;31.67;44889.13;5089531;28;20974;-59
2023/10/23 08:06:50;;;;;;;1.87;1.40;;;;;;;-143.84;30.93;44849.13;5089313;28;20428;-60
2023/10/23 08:09:18;;;;;;;1.47;0.97;;;;;;;-143.84;31.72;44858.66;5089115;28;20444;-59
2023/10/23 08:11:45;;;;;;;1.00;0.77;;;;;;;-143.84;31.84;44854.84;5089009;28;20442;-59
2023/10/23 08:14:12;;;;;;;1.43;0.97;;;;;;;-143.84;30.58;44877.69;5089120;28;20537;-59
2023/10/23 08:16:39;;;;;;;1.00;0.67;;;;;;;-143.84;30.17;44843.44;5089336;28;20440;-59
2023/10/23 08:19:10;;;;;;;2.20;2.00;;;;;;;-143.84;30.69;44847.22;5089196;28;20521;-59
2023/10/23 08:21:37;;;;;;;1.53;0.83;;;;;;;-143.84;30.64;44820.56;5088991;28;20440;-60
2023/10/23 08:24:05;;;;;;;0.90;0.70;;;;;;;-143.84;30.98;44847.22;5089000;28;20953;-60
2023/10/23 08:26:32;;;;;;;1.10;0.53;;;;;;;-143.84;30.80;44826.28;5088788;28;20485;-60
2023/10/23 08:29:00;;;;;;;2.27;1.27;;;;;;;-143.84;31.33;44814.88;5088795;28;21099;-60
2023/10/23 08:31:27;;;;;;;0.90;0.60;;;;;;;-143.84;31.78;44847.22;5088824;28;20440;-59
2023/10/23 08:33:54;;;;;;;3.10;1.10;;;;;;;-143.84;32.10;44862.47;5088525;28;20476;-59
2023/10/23 08:36:22;;;;;;;1.43;0.90;;;;;;;-143.84;32.75;44875.78;5089107;28;20436;-59
2023/10/23 08:38:49;;;;;;;1.23;1.00;;;;;;;-143.84;32.76;44839.63;5089117;28;20727;-59
2023/10/23 08:41:16;;;;;;;1.17;0.90;;;;;;;-143.84;32.82;44854.84;5088852;28;20435;-59
2023/10/23 08:43:44;;;;;;;2.13;1.10;;;;;;;-143.84;31.73;44862.47;5088660;28;20444;-59
2023/10/23 08:46:11;;;;;;;1.57;1.47;;;;;;;-143.84;32.18;44879.59;5088847;28;20436;-59
2023/10/23 08:48:38;;;;;;;1.13;0.73;;;;;;;-143.84;32.66;44803.44;5088944;28;20476;-59
2023/10/23 08:51:08;;;;;;;1.67;0.93;;;;;;;-143.84;31.31;44873.88;5089143;28;20428;-59
2023/10/23 08:53:48;;;;;;;1.83;1.10;;;;;;;-143.84;30.82;44832.00;5088568;28;20933;-59
2023/10/23 08:56:15;;;;;;;3.83;0.80;;;;;;;-143.84;31.15;44818.66;5088752;28;20493;-59
2023/10/23 08:58:46;;;;;;;1.00;0.60;;;;;;;-143.84;30.68;44824.38;5088581;28;20456;-59
2023/10/23 09:01:13;;;;;;;1.53;1.43;;;;;;;-143.84;30.33;44854.84;5088267;28;20475;-59
2023/10/23 09:03:41;;;;;;;1.00;0.73;;;;;;;-143.84;30.73;44833.91;5089047;28;20464;-59
2023/10/23 09:06:09;;;;;;;1.07;0.97;;;;;;;-143.84;30.66;44858.66;5088684;28;21408;-59
2023/10/23 09:08:37;;;;;;;0.90;0.60;;;;;;;-143.84;30.70;44832.00;5088568;28;20489;-59
2023/10/23 09:11:06;;;;;;;1.27;1.17;;;;;;;-143.84;30.73;44871.97;5088658;28;20479;-59
2023/10/23 09:13:37;;;;;;;0.90;0.60;;;;;;;-143.84;30.58;44835.81;5088695;28;20842;-59
2023/10/23 09:16:05;;;;;;;1.10;0.90;;;;;;;-143.84;31.01;44864.38;5088373;28;20439;-59
2023/10/23 09:18:33;;;;;;;2.07;1.03;;;;;;;-143.84;30.79;44852.94;5087976;28;20522;-59
2023/10/23 09:21:00;;;;;;;2.07;1.80;;;;;;;-143.84;32.45;44871.97;5087536;28;20517;-59
2023/10/23 09:23:28;;;;;;;3.60;1.47;;;;;;;-143.84;31.90;44864.38;5087961;28;20428;-59
2023/10/23 09:26:00;;;;;;;1.73;1.10;;;;;;;-143.84;31.84;44854.84;5087727;28;20428;-59
2023/10/23 09:28:28;;;;;;;1.77;1.37;;;;;;;-143.84;31.38;44856.75;5088195;28;20563;-60
2023/10/23 09:30:56;;;;;;;1.20;1.00;;;;;;;-143.84;30.91;44866.28;5088526;28;20926;-60
2023/10/23 09:33:23;;;;;;;1.63;1.00;;;;;;;-143.84;31.21;44873.88;5088011;28;21284;-60
2023/10/23 09:35:51;;;;;;;4.50;1.00;;;;;;;-143.84;31.29;44877.69;5088203;28;20988;-60
2023/10/23 09:38:18;;;;;;;3.17;1.77;;;;;;;-143.84;31.68;44870.09;5088148;28;20448;-59
2023/10/23 09:40:46;;;;;;;2.80;0.90;;;;;;;-143.84;32.50;44864.38;5088214;28;20889;-59
2023/10/23 09:43:14;;;;;;;1.50;0.87;;;;;;;-143.84;32.86;44900.53;5088727;28;20533;-59
2023/10/23 09:45:43;;;;;;;1.70;1.13;;;;;;;-143.84;31.77;44870.09;5088520;28;20505;-59
2023/10/23 09:48:12;;;;;;;1.30;1.00;;;;;;;-143.84;31.76;44891.03;5088106;28;20490;-59
2023/10/23 09:50:43;;;;;;;1.00;0.80;;;;;;;-143.84;31.72;44889.13;5088179;28;20447;-59
2023/10/23 09:53:13;;;;;;;1.17;0.83;;;;;;;-143.84;31.29;44883.41;5087915;28;20443;-59
2023/10/23 09:55:42;;;;;;;2.20;1.10;;;;;;;-143.84;31.15;44883.41;5091033;28;20517;-59
2023/10/23 09:58:18;;;;;;;1.30;0.90;;;;;;;-143.84;30.89;44881.50;5091854;28;20478;-59
2023/10/23 10:00:47;;;;;;;2.63;1.10;;;;;;;-143.84;30.73;44900.53;5091804;28;20451;-59
2023/10/23 10:03:18;;;;;;;1.00;0.80;;;;;;;-143.84;31.69;44896.75;5091229;28;20553;-59
2023/10/23 10:05:50;;;;;;;1.10;0.80;;;;;;;-143.84;31.08;44875.78;5091471;28;20467;-59
2023/10/23 10:08:21;;;;;;;1.30;0.97;;;;;;;-143.84;31.38;44891.03;5091406;28;20973;-59
2023/10/23 10:10:49;;;;;;;2.33;0.90;;;;;;;-143.84;32.26;44900.53;5091388;28;20976;-59
2023/10/23 10:13:20;;;;;;;0.90;0.60;;;;;;;-143.84;31.52;44889.13;5091312;28;21010;-59
2023/10/23 10:15:48;;;;;;;1.10;0.60;;;;;;;-143.84;31.73;44896.75;5091502;28;20448;-59
2023/10/23 10:18:17;;;;;;;1.50;1.07;;;;;;;-143.84;31.84;44915.78;5091542;28;20933;-59
2023/10/23 10:20:48;;;;;;;1.30;0.90;;;;;;;-143.84;32.32;44902.44;5091146;28;20439;-59
2023/10/23 10:23:17;;;;;;;0.90;0.70;;;;;;;-143.84;32.12;44898.66;5091436;28;20520;-59
2023/10/23 10:25:47;;;;;;;1.97;1.27;;;;;;;-143.84;31.72;44889.13;5091345;28;20520;-59
2023/10/23 10:28:15;;;;;;;1.20;1.00;;;;;;;-143.84;31.06;44885.31;5090913;28;21083;-59
2023/10/23 10:30:46;;;;;;;0.90;0.57;;;;;;;-143.84;31.95;44892.94;5090527;28;20493;-59
2023/10/23 10:33:20;;;;;;;1.50;0.73;;;;;;;-143.84;31.87;44902.44;5090798;28;20492;-59
2023/10/23 10:35:51;;;;;;;1.10;0.87;;;;;;;-143.84;31.95;44894.84;5090522;28;20441;-59
2023/10/23 10:38:23;;;;;;;1.00;0.60;;;;;;;-143.84;31.72;44900.53;5090296;28;20440;-59
2023/10/23 10:40:55;;;;;;;1.10;0.87;;;;;;;-143.84;32.03;44885.31;5090501;28;20432;-59
2023/10/23 10:43:24;;;;;;;2.93;1.20;;;;;;;-143.84;32.26;44919.59;5090892;28;20922;-59
2023/10/23 10:45:55;;;;;;;1.10;0.87;;;;;;;-143.84;32.43;44923.41;5091185;28;20465;-59
2023/10/23 10:48:24;;;;;;;1.00;0.70;;;;;;;-143.84;32.03;44910.06;5091129;28;20472;-57
2023/10/23 10:50:53;;;;;;;1.00;0.70;;;;;;;-143.84;31.60;44906.25;5090841;28;20522;-57
2023/10/23 10:53:25;;;;;;;0.90;0.50;;;;;;;-143.84;32.53;44927.19;5090577;28;20465;-57
2023/10/23 10:55:52;;;;;;;1.37;1.00;;;;;;;-143.84;32.01;44887.22;5090829;28;20459;-59
2023/10/23 10:58:21;;;;;;;0.90;0.60;;;;;;;-143.84;32.03;44913.88;5090422;28;20454;-59
2023/10/23 11:00:49;;;;;;;2.40;0.90;;;;;;;-143.84;32.49;44931.00;5090085;28;20440;-59
2023/10/23 11:03:18;;;;;;;0.90;0.50;;;;;;;-143.84;31.86;44913.88;5089768;28;20432;-59
2023/10/23 11:05:46;;;;;;;1.43;0.60;;;;;;;-143.84;32.33;44889.13;5089963;28;20860;-59
2023/10/23 11:08:14;;;;;;;0.90;0.60;;;;;;;-143.84;32.12;44925.31;5090255;28;21046;-59
2023/10/23 11:10:43;;;;;;;1.00;0.80;;;;;;;-143.84;32.80;44904.34;5090625;28;20436;-59
2023/10/23 11:13:14;;;;;;;1.03;0.80;;;;;;;-143.84;31.54;44898.66;5090569;28;20493;-59
2023/10/23 11:15:41;;;;;;;1.20;0.80;;;;;;;-143.84;32.10;44925.31;5090253;28;20527;-59
2023/10/23 11:18:09;;;;;;;1.47;1.23;;;;;;;-143.84;31.86;44891.03;5090381;28;20443;-59
2023/10/23 11:20:38;;;;;;;1.00;0.77;;;;;;;-143.84;31.94;44910.06;5090064;28;20495;-59